Time;durP1;ratioP1;P1;durP2;ratioP2;P2;SDS_P1;SDS_P2;PMS_P1;PMS_P2;Temp;Humidity;BMP_temperature;BMP_pressure;BME280_temperature;BME280_humidity;BME280_pressure;Samples;Min_cycle;Max_cycle;Signal;HPM_P1;HPM_P2
2022/05/08 00:00:24;;;;;;;6.10;4.03;;;22.00;44.20;;;;;;5060815;28;20436;-79
2022/05/08 00:02:54;;;;;;;8.47;4.47;;;22.00;44.10;;;;;;5061238;28;20458;-80
2022/05/08 00:05:23;;;;;;;6.77;4.10;;;21.90;44.30;;;;;;5061504;28;20421;-80
2022/05/08 00:07:51;;;;;;;11.87;4.50;;;21.90;44.20;;;;;;5060682;28;20437;-80
2022/05/08 00:10:19;;;;;;;12.93;4.50;;;21.90;44.40;;;;;;5060940;28;20437;-80
2022/05/08 00:12:48;;;;;;;8.63;4.60;;;21.90;44.40;;;;;;5060830;28;20462;-79
2022/05/08 00:15:16;;;;;;;9.47;4.57;;;21.90;44.40;;;;;;5061082;28;20425;-80
2022/05/08 00:17:44;;;;;;;5.70;4.30;;;21.80;44.30;;;;;;5060755;28;20421;-80
2022/05/08 00:20:13;;;;;;;7.23;4.00;;;21.80;44.30;;;;;;5060535;28;20444;-80
2022/05/08 00:22:43;;;;;;;5.50;3.70;;;21.90;44.40;;;;;;5061084;28;20537;-80
2022/05/08 00:25:11;;;;;;;6.07;3.93;;;21.80;44.20;;;;;;5059791;28;20533;-80
2022/05/08 00:27:39;;;;;;;7.20;4.10;;;21.80;44.40;;;;;;5061117;28;20525;-80
2022/05/08 00:30:10;;;;;;;4.97;3.60;;;21.70;44.40;;;;;;5059915;28;20473;-79
2022/05/08 00:32:39;;;;;;;8.77;4.30;;;21.70;44.30;;;;;;5060136;28;20512;-79
2022/05/08 00:35:09;;;;;;;7.33;4.10;;;21.70;44.50;;;;;;5062467;28;20446;-80
2022/05/08 00:37:38;;;;;;;6.73;3.80;;;21.60;44.40;;;;;;5060906;28;20445;-80
2022/05/08 00:40:07;;;;;;;6.10;4.00;;;21.60;44.30;;;;;;5060352;28;20463;-80
2022/05/08 00:42:35;;;;;;;11.93;3.90;;;21.60;44.30;;;;;;5060656;28;20451;-79
2022/05/08 00:45:04;;;;;;;8.83;4.20;;;21.60;44.20;;;;;;5060061;28;20514;-79
2022/05/08 00:47:35;;;;;;;4.87;3.67;;;21.60;44.40;;;;;;5060656;28;20431;-79
2022/05/08 00:50:04;;;;;;;5.57;3.90;;;21.50;44.30;;;;;;5059867;28;20502;-79
2022/05/08 00:52:32;;;;;;;6.60;3.43;;;21.50;44.30;;;;;;5060326;28;20507;-80
2022/05/08 00:55:00;;;;;;;7.73;4.13;;;21.60;44.40;;;;;;5059979;28;20457;-80
2022/05/08 00:57:28;;;;;;;9.20;4.40;;;21.60;44.30;;;;;;5060255;28;20457;-80
2022/05/08 00:59:56;;;;;;;5.27;3.80;;;21.50;44.20;;;;;;5059786;28;20557;-80
2022/05/08 01:02:25;;;;;;;5.57;3.93;;;21.50;44.10;;;;;;5060011;28;20422;-79
2022/05/08 01:04:54;;;;;;;5.33;3.57;;;21.50;44.30;;;;;;5060013;28;20450;-79
2022/05/08 01:07:22;;;;;;;7.97;4.20;;;21.40;44.20;;;;;;5060352;28;20500;-80
2022/05/08 01:09:50;;;;;;;5.70;4.00;;;21.40;44.30;;;;;;5059489;28;20459;-80
2022/05/08 01:12:18;;;;;;;9.47;4.17;;;21.40;44.40;;;;;;5060094;28;20478;-80
2022/05/08 01:14:46;;;;;;;8.63;4.43;;;21.30;44.20;;;;;;5058804;28;20447;-79
2022/05/08 01:17:15;;;;;;;4.00;3.53;;;21.30;44.20;;;;;;5045997;28;20477;-80
2022/05/08 01:19:43;;;;;;;5.17;3.87;;;21.30;44.30;;;;;;5060068;28;20470;-79
2022/05/08 01:22:13;;;;;;;11.40;4.33;;;21.30;44.40;;;;;;5059750;28;20469;-80
2022/05/08 01:24:41;;;;;;;8.67;4.00;;;21.30;44.30;;;;;;5059906;28;20481;-80
2022/05/08 01:27:09;;;;;;;5.70;3.80;;;21.30;44.30;;;;;;5060156;28;20532;-80
2022/05/08 01:29:38;;;;;;;9.13;3.93;;;21.20;44.20;;;;;;5060007;28;20472;-80
2022/05/08 01:32:07;;;;;;;4.93;3.60;;;21.20;44.80;;;;;;5054352;28;20816;-79
2022/05/08 01:34:35;;;;;;;6.23;4.10;;;21.20;44.80;;;;;;5039954;28;20555;-80
2022/05/08 01:37:03;;;;;;;6.03;3.50;;;21.20;44.40;;;;;;5039707;28;20443;-80
2022/05/08 01:39:33;;;;;;;5.13;3.53;;;21.10;44.40;;;;;;5039132;28;21037;-80
2022/05/08 01:42:03;;;;;;;8.27;3.50;;;21.10;44.40;;;;;;5039262;28;20477;-81
2022/05/08 01:44:31;;;;;;;4.47;3.27;;;21.00;44.40;;;;;;5039387;28;20426;-80
2022/05/08 01:49:41;;;;;;;8.33;3.53;;;21.00;44.40;;;;;;5047118;28;20462;-81
2022/05/08 01:52:09;;;;;;;6.10;3.90;;;21.00;44.30;;;;;;5059820;28;20446;-81
2022/05/08 01:54:39;;;;;;;5.37;3.83;;;21.00;44.50;;;;;;5059265;28;20446;-81
2022/05/08 01:57:07;;;;;;;8.00;4.10;;;20.90;44.30;;;;;;5061127;28;20446;-80
2022/05/08 01:59:35;;;;;;;6.30;3.80;;;20.90;44.50;;;;;;5060253;28;20432;-80
2022/05/08 02:02:04;;;;;;;8.17;4.10;;;20.90;44.30;;;;;;5059577;28;20520;-81
2022/05/08 02:04:32;;;;;;;9.87;3.93;;;20.90;44.50;;;;;;5059470;28;20442;-80
2022/05/08 02:07:00;;;;;;;7.80;3.63;;;20.80;44.40;;;;;;5058181;28;20459;-80
2022/05/08 02:09:28;;;;;;;8.03;3.90;;;20.80;44.40;;;;;;5059416;28;20501;-80
2022/05/08 02:11:58;;;;;;;8.10;3.70;;;20.80;44.40;;;;;;5059001;28;20473;-80
2022/05/08 02:14:26;;;;;;;7.00;3.83;;;20.70;44.20;;;;;;5059377;28;20488;-81
2022/05/08 02:16:54;;;;;;;6.90;3.90;;;20.70;44.40;;;;;;5058941;28;20443;-80
2022/05/08 02:19:22;;;;;;;5.90;3.43;;;20.70;44.60;;;;;;5059133;28;20437;-80
2022/05/08 02:21:50;;;;;;;6.17;3.40;;;20.70;44.60;;;;;;5050890;28;20430;-81
2022/05/08 02:24:18;;;;;;;7.37;3.70;;;20.70;44.50;;;;;;5045198;28;20474;-81
2022/05/08 02:26:46;;;;;;;4.07;3.60;;;20.60;44.50;;;;;;5058969;28;20465;-80
2022/05/08 02:29:16;;;;;;;4.50;3.20;;;20.60;44.40;;;;;;5058307;28;20589;-81
2022/05/08 02:31:43;;;;;;;7.30;4.07;;;20.60;44.40;;;;;;5058973;28;20533;-80
2022/05/08 02:34:12;;;;;;;7.37;3.83;;;20.50;44.50;;;;;;5057963;28;20470;-80
2022/05/08 02:36:40;;;;;;;5.47;3.37;;;20.60;44.50;;;;;;5058704;28;20445;-80
2022/05/08 02:39:08;;;;;;;5.97;3.10;;;20.60;44.50;;;;;;5058656;28;20577;-80
2022/05/08 02:41:36;;;;;;;4.27;3.03;;;20.50;44.60;;;;;;5058537;28;20514;-80
2022/05/08 02:44:05;;;;;;;5.63;3.47;;;20.50;44.60;;;;;;5038826;28;20443;-80
2022/05/08 02:46:34;;;;;;;10.87;4.57;;;20.50;44.50;;;;;;5038143;28;20474;-80
2022/05/08 02:49:02;;;;;;;4.30;3.10;;;20.50;44.50;;;;;;5038901;28;20479;-81
2022/05/08 02:51:30;;;;;;;9.73;4.03;;;20.50;44.60;;;;;;5038711;28;20510;-81
2022/05/08 02:53:58;;;;;;;4.13;3.40;;;20.40;44.50;;;;;;5038660;28;20503;-80
2022/05/08 02:59:12;;;;;;;6.70;3.47;;;20.40;44.30;;;;;;5038203;28;20522;-80
2022/05/08 03:01:41;;;;;;;4.60;3.47;;;20.40;44.40;;;;;;5038837;28;20551;-80
2022/05/08 03:04:09;;;;;;;8.03;3.47;;;20.40;44.50;;;;;;5037836;28;20958;-81
2022/05/08 03:06:38;;;;;;;4.53;3.20;;;20.30;44.50;;;;;;5038559;28;20897;-81
2022/05/08 03:09:06;;;;;;;5.00;3.07;;;20.30;44.40;;;;;;5037872;28;21005;-81
2022/05/08 03:11:36;;;;;;;5.03;3.20;;;20.30;44.40;;;;;;5043106;28;20443;-81
2022/05/08 03:14:04;;;;;;;5.57;2.83;;;20.30;44.40;;;;;;5057878;28;20497;-81
2022/05/08 03:16:33;;;;;;;7.83;3.60;;;20.20;44.50;;;;;;5058957;28;20474;-80
2022/05/08 03:19:03;;;;;;;5.00;3.43;;;20.20;44.50;;;;;;5058198;28;20507;-81
2022/05/08 03:21:31;;;;;;;4.77;3.30;;;20.30;44.50;;;;;;5060726;28;20455;-81
2022/05/08 03:23:59;;;;;;;4.37;3.07;;;20.20;44.50;;;;;;5057176;28;20965;-81
2022/05/08 03:26:30;;;;;;;4.80;2.93;;;20.20;44.30;;;;;;5057895;28;20479;-81
2022/05/08 03:28:58;;;;;;;5.90;3.23;;;20.20;44.30;;;;;;5063727;28;20536;-81
2022/05/08 03:31:26;;;;;;;5.83;3.80;;;20.10;44.40;;;;;;5041913;28;20444;-81
2022/05/08 03:33:55;;;;;;;5.50;3.17;;;20.10;44.50;;;;;;5037541;28;20539;-81
2022/05/08 03:36:27;;;;;;;5.70;3.17;;;20.10;44.40;;;;;;5037876;28;20436;-81
2022/05/08 03:38:56;;;;;;;5.83;3.50;;;20.10;44.40;;;;;;5037491;28;20438;-81
2022/05/08 03:41:24;;;;;;;5.10;3.10;;;20.10;44.60;;;;;;5037472;28;20457;-81
2022/05/08 03:43:52;;;;;;;6.17;3.20;;;20.10;44.40;;;;;;5037493;28;20470;-81
2022/05/08 03:46:20;;;;;;;4.63;2.90;;;20.10;44.50;;;;;;5049393;28;20455;-81
2022/05/08 03:48:48;;;;;;;19.93;3.60;;;20.00;44.60;;;;;;5056981;28;20447;-81
2022/05/08 03:51:16;;;;;;;4.27;3.13;;;20.00;44.50;;;;;;5057254;28;20473;-81
2022/05/08 03:53:45;;;;;;;8.00;3.33;;;20.00;44.50;;;;;;5057536;28;20498;-80
2022/05/08 03:56:13;;;;;;;9.87;3.70;;;19.90;44.40;;;;;;5061145;28;20450;-81
2022/05/08 03:58:42;;;;;;;7.97;3.27;;;19.90;44.40;;;;;;5061175;28;20453;-81
2022/05/08 04:01:10;;;;;;;7.20;2.97;;;19.90;44.50;;;;;;5061915;28;20457;-81
2022/05/08 04:03:38;;;;;;;5.50;3.50;;;19.80;44.60;;;;;;5061409;28;20489;-81
2022/05/08 04:06:07;;;;;;;3.90;2.70;;;19.90;44.70;;;;;;5047875;28;20444;-81
2022/05/08 04:08:35;;;;;;;4.00;3.30;;;19.90;44.60;;;;;;5041548;28;20514;-81
2022/05/08 04:11:04;;;;;;;4.90;3.30;;;19.90;44.70;;;;;;5041572;28;20447;-81
2022/05/08 04:13:32;;;;;;;6.10;3.10;;;19.80;44.60;;;;;;5040847;28;20527;-81
2022/05/08 04:16:19;;;;;;;5.03;3.10;;;19.80;44.70;;;;;;5040775;28;20482;-81
2022/05/08 04:18:48;;;;;;;7.33;2.80;;;19.80;44.60;;;;;;5045886;28;20477;-81
2022/05/08 04:21:16;;;;;;;4.60;3.07;;;19.80;44.60;;;;;;5060837;28;20442;-81
2022/05/08 04:26:31;;;;;;;5.20;2.80;;;19.80;44.50;;;;;;5060536;28;20447;-81
2022/05/08 04:28:59;;;;;;;5.60;3.27;;;19.80;44.60;;;;;;5060804;28;20476;-81
2022/05/08 04:31:27;;;;;;;3.50;3.17;;;19.80;44.60;;;;;;5060672;28;20533;-81
2022/05/08 04:33:55;;;;;;;4.70;2.83;;;19.80;44.60;;;;;;5060254;28;20508;-81
2022/05/08 04:36:23;;;;;;;5.37;3.20;;;19.90;44.40;;;;;;5059921;28;20554;-80
2022/05/08 04:38:54;;;;;;;5.37;3.30;;;19.90;44.60;;;;;;5060509;28;20533;-81
2022/05/08 04:41:22;;;;;;;4.17;3.00;;;19.90;44.50;;;;;;5059351;28;20451;-81
2022/05/08 04:43:57;;;;;;;5.60;3.03;;;19.80;44.40;;;;;;5060145;28;20979;-81
2022/05/08 04:46:25;;;;;;;6.07;3.10;;;19.80;44.70;;;;;;5062879;28;20449;-80
2022/05/08 04:48:54;;;;;;;3.13;2.83;;;19.80;44.60;;;;;;5060639;28;20466;-80
2022/05/08 04:51:22;;;;;;;4.20;2.73;;;19.80;44.50;;;;;;5060085;28;20421;-81
2022/05/08 04:53:50;;;;;;;7.13;3.20;;;19.90;44.60;;;;;;5047331;28;20467;-81
2022/05/08 04:56:18;;;;;;;5.83;3.33;;;19.90;44.30;;;;;;5039718;28;20510;-81
2022/05/08 04:58:46;;;;;;;3.30;2.80;;;19.90;44.40;;;;;;5039910;28;20530;-80
2022/05/08 05:01:15;;;;;;;3.07;2.77;;;19.90;44.40;;;;;;5039155;28;20527;-81
2022/05/08 05:03:44;;;;;;;8.10;2.90;;;19.90;44.50;;;;;;5039986;28;20486;-80
2022/05/08 05:06:12;;;;;;;5.33;3.03;;;19.90;44.40;;;;;;5039465;28;20414;-79
2022/05/08 05:08:40;;;;;;;3.37;2.40;;;19.90;44.30;;;;;;5042244;28;20490;-81
2022/05/08 05:11:08;;;;;;;5.27;3.00;;;19.90;44.50;;;;;;5059105;28;20468;-80
2022/05/08 05:13:37;;;;;;;4.43;2.67;;;19.90;44.40;;;;;;5059144;28;20451;-81
2022/05/08 05:16:05;;;;;;;6.87;3.20;;;19.90;44.60;;;;;;5058352;28;20449;-79
2022/05/08 05:18:37;;;;;;;3.10;2.57;;;19.90;44.60;;;;;;5059445;28;20446;-80
2022/05/08 05:21:05;;;;;;;3.40;2.60;;;19.90;44.60;;;;;;5059004;28;20484;-81
2022/05/08 05:23:35;;;;;;;7.00;3.50;;;19.90;44.70;;;;;;5059158;28;20481;-80
2022/05/08 05:26:03;;;;;;;4.53;2.80;;;19.90;44.80;;;;;;5047517;28;20455;-81
2022/05/08 05:28:31;;;;;;;5.70;2.70;;;19.90;44.70;;;;;;5039356;28;20447;-81
2022/05/08 05:31:00;;;;;;;3.37;2.43;;;19.90;44.70;;;;;;5039267;28;20534;-80
2022/05/08 05:33:29;;;;;;;3.47;2.87;;;20.00;44.80;;;;;;5039205;28;20470;-80
2022/05/08 05:35:59;;;;;;;3.73;2.60;;;20.00;44.70;;;;;;5038994;28;20499;-80
2022/05/08 05:38:27;;;;;;;3.20;2.70;;;20.00;44.60;;;;;;5039205;28;20474;-81
2022/05/08 05:40:55;;;;;;;4.00;2.77;;;20.00;44.60;;;;;;5039525;28;20526;-81
2022/05/08 05:43:23;;;;;;;6.00;2.47;;;20.00;44.60;;;;;;5050155;28;20462;-81
2022/05/08 05:47:49;;;;;;;3.23;2.63;;;20.10;44.70;;;;;;5058499;28;20478;-81
2022/05/08 05:48:38;;;;;;;3.33;2.60;;;20.10;44.70;;;;;;5058564;28;20432;-81
2022/05/08 05:51:08;;;;;;;3.27;2.27;;;20.10;44.50;;;;;;5058672;28;20478;-80
2022/05/08 05:53:37;;;;;;;3.20;2.50;;;20.10;44.60;;;;;;5058811;28;20438;-81
2022/05/08 05:56:05;;;;;;;3.13;2.47;;;20.10;44.60;;;;;;5058629;28;20497;-80
2022/05/08 05:58:33;;;;;;;5.20;2.40;;;20.10;44.50;;;;;;5058722;28;20481;-80
2022/05/08 06:01:01;;;;;;;3.00;2.27;;;20.10;44.60;;;;;;5057976;28;20462;-81
2022/05/08 06:03:29;;;;;;;3.00;2.30;;;20.10;44.60;;;;;;5058527;28;20457;-80
2022/05/08 06:05:58;;;;;;;3.60;2.90;;;20.10;44.60;;;;;;5058045;28;20529;-80
2022/05/08 06:08:27;;;;;;;2.77;2.50;;;20.20;44.60;;;;;;5058234;28;20450;-81
2022/05/08 06:10:55;;;;;;;5.50;2.53;;;20.20;44.60;;;;;;5061086;28;20474;-81
2022/05/08 06:13:24;;;;;;;6.67;2.70;;;20.20;44.50;;;;;;5059499;28;20452;-81
2022/05/08 06:15:52;;;;;;;5.93;2.60;;;20.30;44.50;;;;;;5056150;28;20470;-80
2022/05/08 06:18:24;;;;;;;4.47;2.40;;;20.30;44.60;;;;;;5038677;28;20408;-81
2022/05/08 06:20:53;;;;;;;4.07;2.33;;;20.40;44.40;;;;;;5038714;28;20501;-80
2022/05/08 06:23:21;;;;;;;4.63;2.50;;;20.40;44.40;;;;;;5038248;28;20443;-80
2022/05/08 06:25:51;;;;;;;4.97;3.00;;;20.40;44.40;;;;;;5038044;28;20414;-80
2022/05/08 06:28:24;;;;;;;4.60;2.70;;;20.50;44.40;;;;;;5037396;28;20513;-80
2022/05/08 06:30:53;;;;;;;3.57;2.40;;;20.50;44.40;;;;;;5038318;28;20442;-81
2022/05/08 06:33:21;;;;;;;3.07;2.30;;;20.60;44.20;;;;;;5038083;28;20451;-80
2022/05/08 06:35:49;;;;;;;3.60;2.60;;;20.70;44.30;;;;;;5037753;28;20446;-81
2022/05/08 06:38:18;;;;;;;4.80;2.43;;;20.70;44.00;;;;;;5038211;28;20950;-81
2022/05/08 06:40:46;;;;;;;5.00;2.87;;;20.80;44.20;;;;;;5038616;28;20467;-81
2022/05/08 06:43:15;;;;;;;2.53;2.23;;;20.90;44.20;;;;;;5037925;28;20482;-80
2022/05/08 06:45:44;;;;;;;2.93;2.20;;;21.00;44.10;;;;;;5037852;28;20447;-81
2022/05/08 06:48:12;;;;;;;3.67;2.27;;;21.00;43.80;;;;;;5052747;28;20455;-81
2022/05/08 06:50:40;;;;;;;3.43;2.40;;;21.10;43.70;;;;;;5057797;28;20470;-81
2022/05/08 06:53:09;;;;;;;3.93;2.60;;;21.20;43.80;;;;;;5057997;28;20447;-81
2022/05/08 06:55:37;;;;;;;2.30;2.10;;;21.30;43.40;;;;;;5057523;28;20466;-81
2022/05/08 06:58:05;;;;;;;4.17;2.20;;;21.30;43.50;;;;;;5057966;28;20489;-81
2022/05/08 07:03:20;;;;;;;8.30;2.50;;;21.50;43.40;;;;;;5043133;28;20466;-80
2022/05/08 07:05:49;;;;;;;3.30;2.17;;;21.60;43.20;;;;;;5048260;28;20421;-80
2022/05/08 07:08:17;;;;;;;2.40;2.20;;;21.70;43.20;;;;;;5057732;28;20421;-81
2022/05/08 07:10:45;;;;;;;6.60;2.80;;;21.70;43.20;;;;;;5057136;28;20473;-81
2022/05/08 07:13:15;;;;;;;3.27;2.50;;;21.70;43.30;;;;;;5057468;28;20454;-81
2022/05/08 07:15:44;;;;;;;2.40;2.20;;;21.80;43.20;;;;;;5057759;28;20477;-80
2022/05/08 07:18:29;;;;;;;2.77;2.10;;;21.90;43.20;;;;;;5057152;28;20509;-81
2022/05/08 07:20:58;;;;;;;2.93;2.30;;;22.00;43.30;;;;;;5056715;28;20505;-81
2022/05/08 07:23:26;;;;;;;3.53;2.23;;;22.00;43.20;;;;;;5056884;28;20461;-81
2022/05/08 07:25:54;;;;;;;2.57;2.37;;;22.00;43.20;;;;;;5057756;28;20442;-81
2022/05/08 07:28:22;;;;;;;4.33;2.13;;;22.10;43.30;;;;;;5057850;28;20455;-81
2022/05/08 07:30:52;;;;;;;2.77;2.27;;;22.10;43.20;;;;;;5057690;28;20470;-81
2022/05/08 07:33:20;;;;;;;2.73;2.23;;;22.20;43.40;;;;;;5056998;28;20465;-81
2022/05/08 07:38:34;;;;;;;2.67;2.20;;;22.20;43.20;;;;;;5038720;28;20533;-81
2022/05/08 07:41:02;;;;;;;2.53;2.03;;;22.30;43.30;;;;;;5041442;28;20441;-81
2022/05/08 07:43:30;;;;;;;2.20;2.00;;;22.40;43.40;;;;;;5041350;28;20422;-81
2022/05/08 07:46:00;;;;;;;2.63;2.20;;;22.50;43.20;;;;;;5040796;28;20518;-81
2022/05/08 07:48:28;;;;;;;2.97;2.23;;;22.60;43.30;;;;;;5041987;28;20454;-81
2022/05/08 07:50:59;;;;;;;2.80;2.50;;;22.80;43.40;;;;;;5041117;28;20542;-81
2022/05/08 07:53:27;;;;;;;3.07;1.87;;;22.90;43.00;;;;;;5056457;28;20473;-81
2022/05/08 07:55:55;;;;;;;2.70;2.00;;;22.90;43.10;;;;;;5041462;28;20522;-79
2022/05/08 07:58:23;;;;;;;2.33;2.10;;;23.00;43.00;;;;;;5041183;28;20450;-80
2022/05/08 08:00:53;;;;;;;1.90;1.80;;;23.10;43.00;;;;;;5041795;28;20490;-82
2022/05/08 08:03:23;;;;;;;3.00;2.50;;;23.20;43.10;;;;;;5041989;28;20463;-81
2022/05/08 08:05:53;;;;;;;3.30;2.33;;;23.40;43.20;;;;;;5041045;28;20826;-80
2022/05/08 08:08:36;;;;;;;3.03;2.37;;;23.60;43.00;;;;;;5041616;28;20430;-81
2022/05/08 08:11:05;;;;;;;2.63;2.07;;;23.80;42.90;;;;;;5048402;28;20497;-82
2022/05/08 08:13:34;;;;;;;4.17;2.50;;;24.00;42.60;;;;;;5040697;28;20508;-81
2022/05/08 08:16:02;;;;;;;3.93;2.10;;;24.20;42.60;;;;;;5040225;28;20502;-80
2022/05/08 08:18:31;;;;;;;3.73;2.53;;;24.30;42.30;;;;;;5040290;28;20565;-81
2022/05/08 08:21:02;;;;;;;2.20;2.00;;;24.40;42.30;;;;;;5040304;28;20445;-81
2022/05/08 08:23:31;;;;;;;2.07;1.97;;;24.40;42.10;;;;;;5041247;28;20481;-80
2022/05/08 08:25:59;;;;;;;3.57;2.20;;;24.50;42.20;;;;;;5044261;28;20513;-80
2022/05/08 08:28:27;;;;;;;2.60;2.07;;;24.60;42.20;;;;;;5059418;28;20503;-78
2022/05/08 08:30:55;;;;;;;3.03;2.03;;;24.80;42.10;;;;;;5059954;28;20483;-79
2022/05/08 08:33:23;;;;;;;2.53;1.97;;;25.00;42.20;;;;;;5059137;28;20488;-79
2022/05/08 08:35:53;;;;;;;2.57;2.37;;;25.10;42.00;;;;;;5058647;28;20932;-79
2022/05/08 08:38:20;;;;;;;2.60;2.27;;;25.30;41.80;;;;;;5039218;28;20506;-80
2022/05/08 08:40:50;;;;;;;3.60;1.90;;;25.50;41.80;;;;;;5057891;28;20541;-80
2022/05/08 08:43:18;;;;;;;2.60;2.07;;;25.70;41.60;;;;;;5059261;28;20461;-80
2022/05/08 08:48:32;;;;;;;2.40;1.90;;;26.10;41.50;;;;;;5079704;28;20458;-80
2022/05/08 08:51:02;;;;;;;1.93;1.83;;;26.20;41.40;;;;;;5079771;28;20468;-80
2022/05/08 08:53:31;;;;;;;1.80;1.70;;;26.40;41.20;;;;;;5080702;28;20469;-80
2022/05/08 08:56:01;;;;;;;4.37;2.00;;;26.60;41.20;;;;;;5080378;28;20446;-80
2022/05/08 08:58:28;;;;;;;2.30;2.10;;;26.70;41.00;;;;;;5073355;28;20490;-80
2022/05/08 09:00:56;;;;;;;2.07;1.97;;;26.90;40.80;;;;;;5043747;28;20463;-80
2022/05/08 09:03:27;;;;;;;2.23;2.03;;;27.10;40.70;;;;;;5059656;28;20460;-79
2022/05/08 09:05:55;;;;;;;2.47;2.10;;;27.30;40.50;;;;;;5060052;28;20437;-80
2022/05/08 09:08:28;;;;;;;2.40;1.83;;;27.50;40.40;;;;;;5060228;28;20500;-80
2022/05/08 09:10:58;;;;;;;1.90;1.70;;;27.60;40.10;;;;;;5060096;28;20563;-81
2022/05/08 09:13:26;;;;;;;1.63;1.53;;;27.80;40.00;;;;;;5060047;28;20421;-80
2022/05/08 09:16:05;;;;;;;5.90;2.67;;;28.00;39.90;;;;;;5038776;28;20482;-80
2022/05/08 09:18:43;;;;;;;2.80;2.00;;;28.20;39.80;;;;;;5036753;28;20478;-78
2022/05/08 09:24:10;;;;;;;2.30;1.90;;;28.60;39.40;;;;;;5039011;28;20445;-79
2022/05/08 09:26:40;;;;;;;1.67;1.40;;;28.70;39.30;;;;;;5039855;28;20440;-80
2022/05/08 09:29:08;;;;;;;2.17;1.90;;;28.90;39.10;;;;;;5037613;28;20542;-79
2022/05/08 09:31:40;;;;;;;3.10;1.70;;;29.10;38.90;;;;;;5038079;28;20440;-79
2022/05/08 09:34:14;;;;;;;1.70;1.60;;;29.30;38.70;;;;;;5037514;28;20426;-79
2022/05/08 09:36:43;;;;;;;2.07;1.60;;;29.50;38.50;;;;;;5049546;28;20453;-79
2022/05/08 09:39:13;;;;;;;1.50;1.40;;;29.70;38.50;;;;;;5059037;28;20449;-80
2022/05/08 09:41:42;;;;;;;2.20;1.73;;;29.80;38.10;;;;;;5059211;28;20525;-79
2022/05/08 09:44:11;;;;;;;2.17;1.70;;;30.10;38.00;;;;;;5058805;28;20439;-79
2022/05/08 09:46:40;;;;;;;2.07;1.87;;;30.30;37.70;;;;;;5055506;28;20458;-79
2022/05/08 09:49:08;;;;;;;2.60;1.60;;;30.50;37.50;;;;;;5056075;28;20470;-78
2022/05/08 09:51:36;;;;;;;1.60;1.50;;;30.60;37.30;;;;;;5055552;28;20493;-78
2022/05/08 09:54:04;;;;;;;1.40;1.33;;;30.80;37.20;;;;;;5056133;28;20521;-78
2022/05/08 09:56:33;;;;;;;1.60;1.50;;;31.00;36.80;;;;;;5056076;28;20533;-78
2022/05/08 09:59:01;;;;;;;2.17;1.50;;;31.20;36.50;;;;;;5056538;28;20553;-78
2022/05/08 10:01:29;;;;;;;2.60;1.57;;;31.40;36.30;;;;;;5055611;28;20525;-78
2022/05/08 10:03:58;;;;;;;3.03;1.80;;;31.60;36.00;;;;;;5055607;28;20455;-78
2022/05/08 10:06:28;;;;;;;3.77;2.10;;;31.80;35.80;;;;;;5056829;28;20457;-78
2022/05/08 10:13:53;;;;;;;2.30;1.53;;;32.00;35.50;;;;;;5055771;28;20462;-78
2022/05/08 10:14:33;;;;;;;3.53;1.53;;;32.40;34.90;;;;;;5055910;28;20462;-79
2022/05/08 10:17:04;;;;;;;2.93;1.77;;;32.60;34.50;;;;;;5055782;28;20498;-78
2022/05/08 10:19:45;;;;;;;2.17;1.67;;;32.80;34.20;;;;;;5053445;28;20466;-77
2022/05/08 10:22:14;;;;;;;2.60;1.50;;;33.10;34.00;;;;;;5054972;28;20439;-78
2022/05/08 10:24:51;;;;;;;2.03;1.70;;;33.30;33.60;;;;;;5055246;28;20466;-79
2022/05/08 10:27:22;;;;;;;2.77;1.60;;;33.50;33.40;;;;;;5055714;28;20453;-79
2022/05/08 10:30:32;;;;;;;4.17;1.37;;;33.70;33.00;;;;;;5054800;28;20493;-79
2022/05/08 10:33:01;;;;;;;1.53;1.40;;;33.90;32.70;;;;;;5056334;28;20458;-78
2022/05/08 10:35:30;;;;;;;3.90;1.60;;;34.20;32.40;;;;;;5055872;28;20514;-79
2022/05/08 10:38:20;;;;;;;3.37;2.30;;;34.40;32.10;;;;;;5055844;28;20466;-79
2022/05/08 10:40:48;;;;;;;2.03;1.83;;;34.60;31.70;;;;;;5055295;28;20558;-79
2022/05/08 10:43:28;;;;;;;1.70;1.60;;;34.80;31.40;;;;;;5055527;28;20512;-78
2022/05/08 10:45:57;;;;;;;2.00;1.50;;;35.00;31.10;;;;;;5057584;28;20489;-81
2022/05/08 10:48:30;;;;;;;3.77;1.57;;;35.20;30.90;;;;;;5061778;28;20514;-79
2022/05/08 10:51:00;;;;;;;3.90;1.90;;;35.40;30.50;;;;;;5055873;28;20486;-78
2022/05/08 10:53:29;;;;;;;1.30;1.23;;;35.60;30.20;;;;;;5056463;28;20453;-78
2022/05/08 10:56:05;;;;;;;4.30;2.03;;;35.90;30.00;;;;;;5056324;28;20533;-78
2022/05/08 10:58:35;;;;;;;1.73;1.53;;;36.10;29.80;;;;;;5056199;28;20459;-79
2022/05/08 11:01:04;;;;;;;2.03;1.80;;;36.30;29.50;;;;;;5055575;28;20442;-78
2022/05/08 11:03:35;;;;;;;2.80;2.03;;;36.50;29.30;;;;;;5055477;28;20438;-78
2022/05/08 11:06:03;;;;;;;3.10;1.87;;;36.80;29.20;;;;;;5056436;28;20446;-78
2022/05/08 11:08:32;;;;;;;3.17;1.63;;;37.00;28.90;;;;;;5055752;28;20431;-78
2022/05/08 11:11:02;;;;;;;3.67;1.70;;;37.20;28.70;;;;;;5056097;28;20471;-79
2022/05/08 11:13:45;;;;;;;2.60;1.70;;;37.40;28.50;;;;;;5057231;28;20811;-79
2022/05/08 11:16:15;;;;;;;1.60;1.50;;;38.00;28.30;;;;;;5056471;28;20512;-81
2022/05/08 11:18:43;;;;;;;4.30;1.93;;;39.00;27.50;;;;;;5059485;28;20466;-78
2022/05/08 11:21:11;;;;;;;5.50;2.10;;;38.10;22.20;;;;;;5062121;28;20529;-80
2022/05/08 11:23:44;;;;;;;8.40;2.40;;;35.80;21.50;;;;;;5055977;28;20996;-79
2022/05/08 11:26:13;;;;;;;3.73;1.93;;;33.00;23.40;;;;;;5053914;28;20443;-77
2022/05/08 11:28:49;;;;;;;5.27;2.30;;;31.70;23.90;;;;;;5051861;28;20446;-77
2022/05/08 11:31:17;;;;;;;15.30;8.70;;;29.70;24.60;;;;;;5054379;28;20470;-78
2022/05/08 11:36:32;;;;;;;5.03;2.50;;;30.00;24.70;;;;;;5032271;28;20478;-77
2022/05/08 11:39:01;;;;;;;5.07;2.33;;;30.20;24.10;;;;;;5031225;28;20537;-77
2022/05/08 11:41:29;;;;;;;4.47;2.30;;;32.10;23.20;;;;;;5034175;28;20478;-78
2022/05/08 11:43:59;;;;;;;7.70;2.50;;;32.90;21.60;;;;;;5055055;28;20443;-78
2022/05/08 11:46:35;;;;;;;4.97;2.30;;;32.20;22.10;;;;;;5055693;28;20447;-77
2022/05/08 11:49:12;;;;;;;3.17;2.50;;;31.30;22.10;;;;;;5054264;28;20554;-78
2022/05/08 11:51:42;;;;;;;7.13;2.63;;;31.60;22.40;;;;;;5055438;28;20448;-78
2022/05/08 11:54:30;;;;;;;4.40;2.37;;;32.00;22.10;;;;;;5056869;28;20447;-79
2022/05/08 11:57:16;;;;;;;7.20;2.20;;;32.10;21.20;;;;;;5058507;28;20831;-79
2022/05/08 11:59:46;;;;;;;8.10;2.57;;;33.60;21.00;;;;;;5050286;28;20497;-79
2022/05/08 12:02:14;;;;;;;3.83;2.50;;;34.30;21.00;;;;;;5057472;28;20525;-80
2022/05/08 12:04:43;;;;;;;8.60;2.97;;;36.10;19.20;;;;;;5057275;28;20596;-80
2022/05/08 12:07:11;;;;;;;10.40;2.63;;;36.80;19.10;;;;;;5056778;28;20451;-78
2022/05/08 12:09:41;;;;;;;6.17;2.30;;;37.20;19.10;;;;;;5051176;28;20550;-78
2022/05/08 12:12:23;;;;;;;7.60;2.50;;;37.20;18.90;;;;;;5052141;28;20450;-78
2022/05/08 12:14:59;;;;;;;5.00;2.33;;;38.00;18.20;;;;;;5052117;28;20481;-77
2022/05/08 12:17:28;;;;;;;3.97;2.40;;;38.90;18.10;;;;;;5051614;28;20504;-77
2022/05/08 12:19:57;;;;;;;9.73;2.50;;;39.30;17.90;;;;;;5051352;28;20486;-76
2022/05/08 12:22:26;;;;;;;3.80;2.00;;;39.40;17.20;;;;;;5051611;28;20520;-77
2022/05/08 12:24:54;;;;;;;3.87;2.20;;;39.80;17.30;;;;;;5053072;28;20572;-78
2022/05/08 12:27:23;;;;;;;3.77;1.73;;;40.10;17.00;;;;;;5054634;28;20453;-76
2022/05/08 12:29:51;;;;;;;9.20;2.50;;;39.40;17.70;;;;;;5054629;28;20489;-77
2022/05/08 12:32:20;;;;;;;6.17;3.37;;;40.00;17.20;;;;;;5055347;28;20446;-77
2022/05/08 12:34:49;;;;;;;11.47;8.30;;;40.20;17.00;;;;;;5054742;28;20514;-77
2022/05/08 12:37:17;;;;;;;6.20;3.20;;;40.10;16.80;;;;;;5054955;28;20468;-76
2022/05/08 12:39:45;;;;;;;7.03;3.20;;;40.30;17.10;;;;;;5044494;28;20521;-77
2022/05/08 12:42:13;;;;;;;7.73;2.50;;;41.00;17.20;;;;;;5040714;28;20470;-76
2022/05/08 12:44:43;;;;;;;5.17;2.53;;;40.60;16.80;;;;;;5048130;28;20467;-76
2022/05/08 12:47:11;;;;;;;6.93;2.40;;;40.80;17.20;;;;;;5040755;28;20522;-77
2022/05/08 12:49:42;;;;;;;6.43;2.40;;;41.20;17.40;;;;;;5054915;28;20538;-76
2022/05/08 12:52:10;;;;;;;2.87;1.97;;;40.90;17.40;;;;;;5054732;28;20411;-76
2022/05/08 12:54:38;;;;;;;7.13;2.30;;;41.20;17.60;;;;;;5054702;28;20484;-76
2022/05/08 12:57:07;;;;;;;8.90;3.43;;;40.90;17.40;;;;;;5054525;28;20481;-76
2022/05/08 12:59:46;;;;;;;13.93;4.03;;;41.50;17.40;;;;;;5054351;28;20478;-77
2022/05/08 13:02:14;;;;;;;7.40;3.07;;;41.00;17.40;;;;;;5053804;28;20446;-76
2022/05/08 13:04:44;;;;;;;4.43;2.60;;;40.30;17.40;;;;;;5054454;28;20566;-76
2022/05/08 13:07:13;;;;;;;7.47;2.50;;;40.70;17.60;;;;;;5054396;28;20446;-76
2022/05/08 13:09:41;;;;;;;6.40;4.90;;;40.80;17.30;;;;;;5040560;28;20528;-75
2022/05/08 13:12:09;;;;;;;4.90;3.80;;;40.30;17.60;;;;;;5054010;28;20629;-76
2022/05/08 13:14:37;;;;;;;7.73;6.17;;;38.00;18.60;;;;;;5054237;28;20461;-76
2022/05/08 13:17:06;;;;;;;8.00;4.07;;;37.50;19.20;;;;;;5054036;28;20477;-76
2022/05/08 13:19:35;;;;;;;8.50;3.27;;;36.30;19.90;;;;;;5054080;28;20478;-76
2022/05/08 13:22:05;;;;;;;8.93;3.50;;;34.90;20.60;;;;;;5053878;28;20541;-76